createdAt,value
2024-02-03T00:00:02.000Z,9.7
2024-02-03T00:01:14.000Z,9.7
2024-02-03T00:02:26.000Z,9.7
2024-02-03T00:03:39.000Z,9.7
2024-02-03T00:04:51.000Z,9.7
2024-02-03T00:06:03.000Z,9.7
2024-02-03T00:07:15.000Z,9.7
2024-02-03T00:08:27.000Z,9.7
2024-02-03T00:09:40.000Z,9.7
2024-02-03T00:10:52.000Z,9.7
2024-02-03T00:12:03.000Z,9.7
2024-02-03T00:13:15.000Z,9.7
2024-02-03T00:14:27.000Z,9.7
2024-02-03T00:15:40.000Z,9.7
2024-02-03T00:16:52.000Z,9.7
2024-02-03T00:18:04.000Z,9.7
2024-02-03T00:19:16.000Z,9.7
2024-02-03T00:20:28.000Z,9.7
2024-02-03T00:21:40.000Z,9.7
2024-02-03T00:22:53.000Z,9.7
2024-02-03T00:24:05.000Z,9.7
2024-02-03T00:25:17.000Z,9.7
2024-02-03T00:26:29.000Z,9.7
2024-02-03T00:27:40.000Z,9.7
2024-02-03T00:28:53.000Z,9.7
2024-02-03T00:30:05.000Z,9.7
2024-02-03T00:31:17.000Z,9.7
2024-02-03T00:32:29.000Z,9.7
2024-02-03T00:33:41.000Z,9.7
2024-02-03T00:34:54.000Z,9.7
2024-02-03T00:36:06.000Z,9.7
2024-02-03T00:37:18.000Z,9.7
2024-02-03T00:38:30.000Z,9.7
2024-02-03T00:39:42.000Z,9.7
2024-02-03T00:40:54.000Z,9.7
2024-02-03T00:42:07.000Z,9.7
2024-02-03T00:43:18.000Z,9.7
2024-02-03T00:44:30.000Z,9.7
2024-02-03T00:45:42.000Z,9.7
2024-02-03T00:46:54.000Z,9.7
2024-02-03T00:48:07.000Z,9.7
2024-02-03T00:49:19.000Z,9.7
2024-02-03T00:50:31.000Z,9.7
2024-02-03T00:51:43.000Z,9.7
2024-02-03T00:52:55.000Z,9.7
2024-02-03T00:54:07.000Z,9.7
2024-02-03T00:55:20.000Z,9.7
2024-02-03T00:56:32.000Z,9.7
2024-02-03T00:57:44.000Z,9.7
2024-02-03T00:58:55.000Z,9.7
2024-02-03T01:00:07.000Z,9.7
2024-02-03T01:01:20.000Z,9.7
2024-02-03T01:02:32.000Z,9.7
2024-02-03T01:03:44.000Z,9.7
2024-02-03T01:04:56.000Z,9.7
2024-02-03T01:06:08.000Z,9.7
2024-02-03T01:07:21.000Z,9.7
2024-02-03T01:08:33.000Z,9.8
2024-02-03T01:09:45.000Z,9.7
2024-02-03T01:10:57.000Z,9.7
2024-02-03T01:12:09.000Z,9.7
2024-02-03T01:13:21.000Z,9.7
2024-02-03T01:14:33.000Z,9.7
2024-02-03T01:15:45.000Z,9.8
2024-02-03T01:16:57.000Z,9.8
2024-02-03T01:18:09.000Z,9.8
2024-02-03T01:19:21.000Z,9.8
2024-02-03T01:20:34.000Z,9.8
2024-02-03T01:21:46.000Z,9.8
2024-02-03T01:22:58.000Z,9.8
2024-02-03T01:24:10.000Z,9.8
2024-02-03T01:25:22.000Z,9.8
2024-02-03T01:26:35.000Z,9.8
2024-02-03T01:27:47.000Z,9.8
2024-02-03T01:28:59.000Z,9.8
2024-02-03T01:30:10.000Z,9.8
2024-02-03T01:31:22.000Z,9.8
2024-02-03T01:32:34.000Z,9.8
2024-02-03T01:33:47.000Z,9.8
2024-02-03T01:34:59.000Z,9.8
2024-02-03T01:36:11.000Z,9.8
2024-02-03T01:37:23.000Z,9.8
2024-02-03T01:38:35.000Z,9.8
2024-02-03T01:39:48.000Z,9.8
2024-02-03T01:41:00.000Z,9.8
2024-02-03T01:42:12.000Z,9.8
2024-02-03T01:43:24.000Z,9.8
2024-02-03T01:44:36.000Z,9.8
2024-02-03T01:45:48.000Z,9.8
2024-02-03T01:47:00.000Z,9.8
2024-02-03T01:48:12.000Z,9.8
2024-02-03T01:49:24.000Z,9.8
2024-02-03T01:50:36.000Z,9.8
2024-02-03T01:51:48.000Z,9.8
2024-02-03T01:53:01.000Z,9.8
2024-02-03T01:54:13.000Z,9.8
2024-02-03T01:55:25.000Z,9.8
2024-02-03T01:56:37.000Z,9.8
2024-02-03T01:57:49.000Z,9.8
2024-02-03T01:59:02.000Z,9.8
2024-02-03T02:00:14.000Z,9.8
2024-02-03T02:01:25.000Z,9.8
2024-02-03T02:02:37.000Z,9.8
2024-02-03T02:03:49.000Z,9.8
2024-02-03T02:05:01.000Z,9.8
2024-02-03T02:06:14.000Z,9.8
2024-02-03T02:07:26.000Z,9.8
2024-02-03T02:08:38.000Z,9.8
2024-02-03T02:09:50.000Z,9.8
2024-02-03T02:11:02.000Z,9.8
2024-02-03T02:12:15.000Z,9.8
2024-02-03T02:13:27.000Z,9.8
2024-02-03T02:14:39.000Z,9.8
2024-02-03T02:15:51.000Z,9.8
2024-02-03T02:17:02.000Z,9.8
2024-02-03T02:18:15.000Z,9.8
2024-02-03T02:19:27.000Z,9.8
2024-02-03T02:20:39.000Z,9.9
2024-02-03T02:21:51.000Z,9.9
2024-02-03T02:23:03.000Z,9.9
2024-02-03T02:24:15.000Z,9.9
2024-02-03T02:25:28.000Z,9.9
2024-02-03T02:26:40.000Z,9.9
2024-02-03T02:27:52.000Z,9.9
2024-02-03T02:29:04.000Z,9.9
2024-02-03T02:30:16.000Z,9.9
2024-02-03T02:31:29.000Z,9.9
2024-02-03T02:32:40.000Z,9.9
2024-02-03T02:33:52.000Z,9.9
2024-02-03T02:35:04.000Z,9.9
2024-02-03T02:36:16.000Z,9.9
2024-02-03T02:37:29.000Z,9.9
2024-02-03T02:38:41.000Z,9.9
2024-02-03T02:39:53.000Z,9.9
2024-02-03T02:41:05.000Z,9.9
2024-02-03T02:42:17.000Z,9.9
2024-02-03T02:43:29.000Z,10
2024-02-03T02:44:42.000Z,10
2024-02-03T02:45:54.000Z,10
2024-02-03T02:47:06.000Z,9.9
2024-02-03T02:48:17.000Z,9.9
2024-02-03T02:49:29.000Z,9.9
2024-02-03T02:50:42.000Z,10
2024-02-03T02:51:54.000Z,10
2024-02-03T02:53:06.000Z,10
2024-02-03T02:54:18.000Z,10
2024-02-03T02:55:29.000Z,10
2024-02-03T02:56:42.000Z,10
2024-02-03T02:57:54.000Z,10
2024-02-03T02:59:06.000Z,10
2024-02-03T03:00:18.000Z,10
2024-02-03T03:01:30.000Z,10
2024-02-03T03:02:42.000Z,10
2024-02-03T03:03:55.000Z,10
2024-02-03T03:05:07.000Z,10
2024-02-03T03:06:19.000Z,10
2024-02-03T03:07:31.000Z,10
2024-02-03T03:08:43.000Z,10
2024-02-03T03:09:56.000Z,10
2024-02-03T03:11:07.000Z,10
2024-02-03T03:12:19.000Z,10.1
2024-02-03T03:13:31.000Z,10.1
2024-02-03T03:14:43.000Z,10.1
2024-02-03T03:15:55.000Z,10.1
2024-02-03T03:17:08.000Z,10.1
2024-02-03T03:18:20.000Z,10.1
2024-02-03T03:19:32.000Z,10.1
2024-02-03T03:20:44.000Z,10
2024-02-03T03:21:56.000Z,10.1
2024-02-03T03:23:09.000Z,10.1
2024-02-03T03:24:21.000Z,10
2024-02-03T03:25:33.000Z,10.1
2024-02-03T03:26:44.000Z,10
2024-02-03T03:27:56.000Z,10
2024-02-03T03:29:09.000Z,10.1
2024-02-03T03:30:21.000Z,10.1
2024-02-03T03:31:33.000Z,10.1
2024-02-03T03:32:45.000Z,10.1
2024-02-03T03:33:57.000Z,10.1
2024-02-03T03:35:09.000Z,10.1
2024-02-03T03:36:22.000Z,10.1
2024-02-03T03:37:34.000Z,10.1
2024-02-03T03:38:46.000Z,10.1
2024-02-03T03:39:58.000Z,10.1
2024-02-03T03:41:10.000Z,10.1
2024-02-03T03:42:22.000Z,10.1
2024-02-03T03:43:34.000Z,10.1
2024-02-03T03:44:46.000Z,10.1
2024-02-03T03:45:58.000Z,10.1
2024-02-03T03:47:10.000Z,10.1
2024-02-03T03:48:23.000Z,10.1
2024-02-03T03:49:35.000Z,10.1
2024-02-03T03:50:47.000Z,10.1
2024-02-03T03:51:59.000Z,10.1
2024-02-03T03:53:11.000Z,10.1
2024-02-03T03:54:23.000Z,10.1
2024-02-03T03:55:36.000Z,10.1
2024-02-03T03:56:48.000Z,10.1
2024-02-03T03:57:59.000Z,10.1
2024-02-03T03:59:11.000Z,10.1
2024-02-03T04:00:23.000Z,10.1
2024-02-03T04:01:36.000Z,10.1
2024-02-03T04:02:48.000Z,10
2024-02-03T04:04:00.000Z,10
2024-02-03T04:05:12.000Z,10
2024-02-03T04:06:24.000Z,10
2024-02-03T04:07:36.000Z,10
2024-02-03T04:08:49.000Z,10
2024-02-03T04:10:01.000Z,10
2024-02-03T04:11:13.000Z,10
2024-02-03T04:12:25.000Z,10
2024-02-03T04:13:36.000Z,10
2024-02-03T04:14:49.000Z,10
2024-02-03T04:17:13.000Z,10
2024-02-03T04:18:01.258Z,10
2024-02-03T04:18:25.000Z,10
2024-02-03T04:19:37.000Z,10
2024-02-03T04:20:50.000Z,9.9
2024-02-03T04:22:02.000Z,9.9
2024-02-03T04:23:14.000Z,9.9
2024-02-03T04:24:26.000Z,9.9
2024-02-03T04:25:38.000Z,9.9
2024-02-03T04:26:50.000Z,9.9
2024-02-03T04:28:03.000Z,9.9
2024-02-03T04:29:14.000Z,9.9
2024-02-03T04:30:26.000Z,9.9
2024-02-03T04:31:38.000Z,9.9
2024-02-03T04:32:50.000Z,9.9
2024-02-03T04:34:03.000Z,9.9
2024-02-03T04:35:15.000Z,9.9
2024-02-03T04:36:27.000Z,9.9
2024-02-03T04:37:39.000Z,9.9
2024-02-03T04:38:51.000Z,9.9
2024-02-03T04:40:03.000Z,9.9
2024-02-03T04:41:16.000Z,9.9
2024-02-03T04:42:28.000Z,9.9
2024-02-03T04:43:40.000Z,9.8
2024-02-03T04:44:51.000Z,9.8
2024-02-03T04:46:03.000Z,9.8
2024-02-03T04:47:16.000Z,9.8
2024-02-03T04:48:28.000Z,9.8
2024-02-03T04:49:40.000Z,9.8
2024-02-03T04:50:52.000Z,9.8
2024-02-03T04:52:04.000Z,9.8
2024-02-03T04:53:17.000Z,9.8
2024-02-03T04:54:29.000Z,9.8
2024-02-03T04:55:41.000Z,9.8
2024-02-03T04:56:53.000Z,9.8
2024-02-03T04:58:05.000Z,9.8
2024-02-03T04:59:17.000Z,9.8
2024-02-03T05:00:29.000Z,9.8
2024-02-03T05:01:41.000Z,9.7
2024-02-03T05:02:53.000Z,9.7
2024-02-03T05:04:05.000Z,9.7
2024-02-03T05:05:17.000Z,9.7
2024-02-03T05:06:30.000Z,9.7
2024-02-03T05:07:42.000Z,9.7
2024-02-03T05:08:54.000Z,9.7
2024-02-03T05:10:06.000Z,9.7
2024-02-03T05:11:18.000Z,9.7
2024-02-03T05:12:30.000Z,9.7
2024-02-03T05:13:43.000Z,9.7
2024-02-03T05:14:55.000Z,9.7
2024-02-03T05:16:06.000Z,9.7
2024-02-03T05:17:18.000Z,9.7
2024-02-03T05:18:30.000Z,9.7
2024-02-03T05:19:43.000Z,9.7
2024-02-03T05:20:55.000Z,9.7
2024-02-03T05:22:07.000Z,9.7
2024-02-03T05:23:19.000Z,9.7
2024-02-03T05:24:31.000Z,9.7
2024-02-03T05:25:44.000Z,9.7
2024-02-03T05:26:56.000Z,9.7
2024-02-03T05:28:08.000Z,9.7
2024-02-03T05:29:20.000Z,9.7
2024-02-03T05:30:32.000Z,9.6
2024-02-03T05:31:43.000Z,9.7
2024-02-03T05:32:56.000Z,9.7
2024-02-03T05:34:08.000Z,9.7
2024-02-03T05:35:20.000Z,9.7
2024-02-03T05:36:32.000Z,9.7
2024-02-03T05:37:44.000Z,9.7
2024-02-03T05:38:57.000Z,9.7
2024-02-03T05:40:09.000Z,9.7
2024-02-03T05:41:21.000Z,9.6
2024-02-03T05:42:33.000Z,9.6
2024-02-03T05:43:45.000Z,9.6
2024-02-03T05:44:57.000Z,9.6
2024-02-03T05:46:10.000Z,9.6
2024-02-03T05:47:21.000Z,9.6
2024-02-03T05:48:33.000Z,9.6
2024-02-03T05:49:45.000Z,9.6
2024-02-03T05:50:57.000Z,9.6
2024-02-03T05:52:10.000Z,9.6
2024-02-03T05:53:22.000Z,9.6
2024-02-03T05:54:34.000Z,9.5
2024-02-03T05:55:46.000Z,9.5
2024-02-03T05:56:58.000Z,9.5
2024-02-03T05:58:11.000Z,9.5
2024-02-03T05:59:23.000Z,9.5
2024-02-03T06:00:35.000Z,9.5
2024-02-03T06:01:47.000Z,9.5
2024-02-03T06:02:58.000Z,9.5
2024-02-03T06:04:10.000Z,9.5
2024-02-03T06:05:23.000Z,9.5
2024-02-03T06:06:35.000Z,9.5
2024-02-03T06:07:47.000Z,9.5
2024-02-03T06:08:59.000Z,9.5
2024-02-03T06:10:11.000Z,9.5
2024-02-03T06:11:24.000Z,9.5
2024-02-03T06:12:36.000Z,9.5
2024-02-03T06:13:48.000Z,9.5
2024-02-03T06:15:00.000Z,9.5
2024-02-03T06:16:12.000Z,9.5
2024-02-03T06:17:24.000Z,9.5
2024-02-03T06:18:36.000Z,9.5
2024-02-03T06:19:48.000Z,9.5
2024-02-03T06:21:00.000Z,9.5
2024-02-03T06:22:12.000Z,9.5
2024-02-03T06:23:24.000Z,9.5
2024-02-03T06:24:37.000Z,9.5
2024-02-03T06:25:49.000Z,9.5
2024-02-03T06:27:01.000Z,9.5
2024-02-03T06:28:13.000Z,9.5
2024-02-03T06:29:25.000Z,9.5
2024-02-03T06:30:37.000Z,9.6
2024-02-03T06:31:50.000Z,9.6
2024-02-03T06:33:02.000Z,9.6
2024-02-03T06:34:13.000Z,9.6
2024-02-03T06:35:25.000Z,9.6
2024-02-03T06:36:37.000Z,9.6
2024-02-03T06:37:50.000Z,9.6
2024-02-03T06:39:02.000Z,9.6
2024-02-03T06:40:14.000Z,9.6
2024-02-03T06:41:26.000Z,9.6
2024-02-03T06:42:38.000Z,9.6
2024-02-03T06:43:51.000Z,9.6
2024-02-03T06:45:03.000Z,9.6
2024-02-03T06:46:15.000Z,9.6
2024-02-03T06:47:27.000Z,9.6
2024-02-03T06:48:39.000Z,9.6
2024-02-03T06:49:50.000Z,9.7
2024-02-03T06:51:03.000Z,9.6
2024-02-03T06:52:15.000Z,9.7
2024-02-03T06:53:27.000Z,9.7
2024-02-03T06:54:39.000Z,9.7
2024-02-03T06:55:51.000Z,9.7
2024-02-03T06:57:03.000Z,9.7
2024-02-03T06:58:15.000Z,9.7
2024-02-03T06:59:27.000Z,9.7
2024-02-03T07:00:39.000Z,9.7
2024-02-03T07:01:51.000Z,9.7
2024-02-03T07:03:04.000Z,9.7
2024-02-03T07:04:16.000Z,9.7
2024-02-03T07:05:28.000Z,9.7
2024-02-03T07:06:40.000Z,9.7
2024-02-03T07:07:52.000Z,9.7
2024-02-03T07:09:04.000Z,9.7
2024-02-03T07:10:17.000Z,9.8
2024-02-03T07:11:29.000Z,9.8
2024-02-03T07:12:40.000Z,9.8
2024-02-03T07:13:52.000Z,9.8
2024-02-03T07:15:04.000Z,9.8
2024-02-03T07:16:17.000Z,9.8
2024-02-03T07:17:29.000Z,9.8
2024-02-03T07:18:41.000Z,9.8
2024-02-03T07:19:53.000Z,9.8
2024-02-03T07:21:05.000Z,9.8
2024-02-03T07:22:17.000Z,9.8
2024-02-03T07:23:30.000Z,9.8
2024-02-03T07:24:42.000Z,9.9
2024-02-03T07:25:54.000Z,9.9
2024-02-03T07:27:06.000Z,9.9
2024-02-03T07:28:17.000Z,9.9
2024-02-03T07:29:30.000Z,9.9
2024-02-03T07:30:42.000Z,9.9
2024-02-03T07:31:54.000Z,9.9
2024-02-03T07:33:06.000Z,10
2024-02-03T07:34:18.000Z,10
2024-02-03T07:35:31.000Z,10
2024-02-03T07:36:43.000Z,10
2024-02-03T07:37:55.000Z,10
2024-02-03T07:39:07.000Z,10
2024-02-03T07:40:19.000Z,10
2024-02-03T07:41:31.000Z,10.1
2024-02-03T07:42:44.000Z,10.1
2024-02-03T07:43:55.000Z,10.1
2024-02-03T07:45:07.000Z,10.1
2024-02-03T07:46:19.000Z,10.1
2024-02-03T07:47:31.000Z,10.2
2024-02-03T07:48:44.000Z,10.2
2024-02-03T07:49:56.000Z,10.2
2024-02-03T07:51:08.000Z,10.2
2024-02-03T07:52:20.000Z,10.2
2024-02-03T07:53:32.000Z,10.2
2024-02-03T07:54:44.000Z,10.2
2024-02-03T07:55:57.000Z,10.2
2024-02-03T07:57:09.000Z,10.2
2024-02-03T07:58:21.000Z,10.2
2024-02-03T07:59:32.000Z,10.2
2024-02-03T08:00:44.000Z,10.2
2024-02-03T08:01:57.000Z,10.2
2024-02-03T08:03:09.000Z,10.2
2024-02-03T08:04:21.000Z,10.2
2024-02-03T08:05:33.000Z,10.2
2024-02-03T08:06:45.000Z,10.2
2024-02-03T08:07:57.000Z,10.2
2024-02-03T08:09:10.000Z,10.2
2024-02-03T08:10:22.000Z,10.2
2024-02-03T08:11:34.000Z,10.2
2024-02-03T08:12:46.000Z,10.2
2024-02-03T08:13:58.000Z,10.2
2024-02-03T08:15:10.000Z,10.2
2024-02-03T08:16:22.000Z,10.2
2024-02-03T08:17:34.000Z,10.2
2024-02-03T08:18:46.000Z,10.2
2024-02-03T08:19:58.000Z,10.2
2024-02-03T08:21:11.000Z,10.3
2024-02-03T08:22:23.000Z,10.3
2024-02-03T08:23:35.000Z,10.3
2024-02-03T08:24:47.000Z,10.3
2024-02-03T08:25:59.000Z,10.3
2024-02-03T08:27:11.000Z,10.3
2024-02-03T08:28:24.000Z,10.3
2024-02-03T08:29:36.000Z,10.4
2024-02-03T08:30:47.000Z,10.4
2024-02-03T08:31:59.000Z,10.4
2024-02-03T08:33:11.000Z,10.5
2024-02-03T08:34:24.000Z,10.5
2024-02-03T08:35:36.000Z,10.5
2024-02-03T08:36:48.000Z,10.5
2024-02-03T08:38:00.000Z,10.5
2024-02-03T08:39:12.000Z,10.5
2024-02-03T08:40:24.000Z,10.5
2024-02-03T08:41:37.000Z,10.5
2024-02-03T08:42:49.000Z,10.4
2024-02-03T08:44:01.000Z,10.4
2024-02-03T08:45:13.000Z,10.4
2024-02-03T08:46:24.000Z,10.4
2024-02-03T08:47:37.000Z,10.5
2024-02-03T08:48:49.000Z,10.5
2024-02-03T08:50:01.000Z,10.5
2024-02-03T08:51:13.000Z,10.5
2024-02-03T08:52:25.000Z,10.5
2024-02-03T08:53:38.000Z,10.5
2024-02-03T08:54:50.000Z,10.5
2024-02-03T08:56:02.000Z,10.5
2024-02-03T08:57:14.000Z,10.6
2024-02-03T08:58:26.000Z,10.6
2024-02-03T08:59:38.000Z,10.6
2024-02-03T09:00:51.000Z,10.6
2024-02-03T09:02:02.000Z,10.6
2024-02-03T09:03:14.000Z,10.6
2024-02-03T09:05:38.000Z,10.7
2024-02-03T09:06:26.866Z,10.7
2024-02-03T09:06:51.000Z,10.8
2024-02-03T09:08:03.000Z,10.8
2024-02-03T09:09:15.000Z,10.8
2024-02-03T09:10:27.000Z,10.9
2024-02-03T09:11:39.000Z,10.9
2024-02-03T09:12:51.000Z,10.9
2024-02-03T09:14:04.000Z,10.9
2024-02-03T09:15:16.000Z,10.9
2024-02-03T09:16:28.000Z,10.8
2024-02-03T09:17:39.000Z,10.9
2024-02-03T09:18:51.000Z,10.9
2024-02-03T09:20:04.000Z,10.9
2024-02-03T09:21:16.000Z,11
2024-02-03T09:22:28.000Z,11
2024-02-03T09:23:40.000Z,11
2024-02-03T09:24:52.000Z,11.1
2024-02-03T09:26:05.000Z,11.1
2024-02-03T09:27:17.000Z,11.1
2024-02-03T09:29:41.000Z,11.2
2024-02-03T09:30:29.578Z,11.2
2024-02-03T09:30:53.000Z,11.1
2024-02-03T09:32:05.000Z,11.1
2024-02-03T09:33:17.000Z,11.1
2024-02-03T09:34:29.000Z,11.1
2024-02-03T09:35:41.000Z,11.1
2024-02-03T09:36:53.000Z,11.1
2024-02-03T09:38:05.000Z,11.1
2024-02-03T09:39:18.000Z,11.1
2024-02-03T09:40:30.000Z,11.2
2024-02-03T09:41:42.000Z,11.4
2024-02-03T09:42:54.000Z,11.5
2024-02-03T09:44:06.000Z,11.5
2024-02-03T09:45:18.000Z,11.7
2024-02-03T09:46:31.000Z,11.8
2024-02-03T09:47:43.000Z,11.8
2024-02-03T09:48:54.000Z,11.7
2024-02-03T09:51:18.000Z,11.6
2024-02-03T09:52:06.919Z,11.7
2024-02-03T09:52:31.000Z,11.5
2024-02-03T09:53:43.000Z,11.4
2024-02-03T09:54:55.000Z,11.4
2024-02-03T09:56:07.000Z,11.2
2024-02-03T09:57:19.000Z,11.2
2024-02-03T09:58:31.000Z,11.2
2024-02-03T09:59:44.000Z,11.2
2024-02-03T10:00:56.000Z,11.2
2024-02-03T10:02:08.000Z,11.2
2024-02-03T10:03:20.000Z,11.3
2024-02-03T10:04:31.000Z,11.3
2024-02-03T10:05:44.000Z,11.4
2024-02-03T10:06:56.000Z,11.6
2024-02-03T10:08:08.000Z,11.7
2024-02-03T10:09:20.000Z,11.8
2024-02-03T10:10:32.000Z,11.9
2024-02-03T10:11:45.000Z,11.8
2024-02-03T10:12:57.000Z,11.8
2024-02-03T10:14:09.000Z,11.9
2024-02-03T10:15:21.000Z,12
2024-02-03T10:16:33.000Z,12
2024-02-03T10:17:45.000Z,12
2024-02-03T10:18:58.000Z,12
2024-02-03T10:20:09.000Z,12
2024-02-03T10:21:21.000Z,12
2024-02-03T10:22:33.000Z,11.9
2024-02-03T10:23:45.000Z,11.9
2024-02-03T10:24:58.000Z,11.9
2024-02-03T10:26:10.000Z,11.9
2024-02-03T10:27:22.000Z,11.8
2024-02-03T10:28:34.000Z,11.8
2024-02-03T10:29:46.000Z,11.8
2024-02-03T10:30:58.000Z,11.8
2024-02-03T10:32:11.000Z,11.8
2024-02-03T10:33:23.000Z,11.8
2024-02-03T10:34:35.000Z,11.8
2024-02-03T10:35:46.000Z,11.8
2024-02-03T10:36:58.000Z,11.8
2024-02-03T10:38:11.000Z,11.8
2024-02-03T10:39:23.000Z,11.8
2024-02-03T10:41:47.000Z,11.7
2024-02-03T10:42:35.720Z,11.7
2024-02-03T10:42:59.000Z,11.7
2024-02-03T10:44:12.000Z,11.7
2024-02-03T10:45:24.000Z,11.7
2024-02-03T10:46:36.000Z,11.7
2024-02-03T10:47:48.000Z,11.7
2024-02-03T10:49:00.000Z,11.6
2024-02-03T10:50:12.000Z,11.6
2024-02-03T10:51:24.000Z,11.6
2024-02-03T10:52:36.000Z,11.6
2024-02-03T10:53:48.000Z,11.7
2024-02-03T10:55:00.000Z,11.7
2024-02-03T10:56:12.000Z,11.7
2024-02-03T10:57:25.000Z,11.6
2024-02-03T10:58:36.000Z,11.6
2024-02-03T10:59:48.000Z,11.6
2024-02-03T11:01:00.000Z,11.6
2024-02-03T11:02:12.000Z,11.6
2024-02-03T11:03:24.000Z,11.6
2024-02-03T11:04:37.000Z,11.5
2024-02-03T11:05:49.000Z,11.5
2024-02-03T11:07:01.000Z,11.5
2024-02-03T11:08:13.000Z,11.4
2024-02-03T11:09:25.000Z,11.4
2024-02-03T11:10:38.000Z,11.4
2024-02-03T11:11:50.000Z,11.5
2024-02-03T11:13:02.000Z,11.6
2024-02-03T11:14:14.000Z,11.8
2024-02-03T11:15:25.000Z,12
2024-02-03T11:16:38.000Z,12.1
2024-02-03T11:17:50.000Z,12.1
2024-02-03T11:19:02.000Z,12.2
2024-02-03T11:20:14.000Z,12.1
2024-02-03T11:21:26.000Z,12
2024-02-03T11:22:38.000Z,11.9
2024-02-03T11:23:51.000Z,11.9
2024-02-03T11:25:03.000Z,11.9
2024-02-03T11:26:15.000Z,11.9
2024-02-03T11:27:27.674Z,11.9
2024-02-03T11:28:39.000Z,11.9
2024-02-03T11:29:52.000Z,12
2024-02-03T11:31:03.000Z,12.1
2024-02-03T11:32:15.000Z,12.2
2024-02-03T11:33:27.000Z,12.4
2024-02-03T11:34:39.000Z,12.5
2024-02-03T11:35:51.000Z,12.5
2024-02-03T11:37:04.000Z,12.5
2024-02-03T11:38:16.000Z,12.5
2024-02-03T11:39:28.000Z,12.4
2024-02-03T11:40:40.000Z,12.3
2024-02-03T11:41:52.000Z,12.3
2024-02-03T11:43:05.000Z,12.4
2024-02-03T11:44:17.000Z,12.4
2024-02-03T11:45:29.000Z,12.4
2024-02-03T11:46:40.000Z,12.4
2024-02-03T11:47:52.000Z,12.3
2024-02-03T11:49:05.000Z,12.3
2024-02-03T11:50:17.000Z,12.2
2024-02-03T11:51:29.000Z,12.1
2024-02-03T11:52:41.000Z,12
2024-02-03T11:53:53.000Z,12
2024-02-03T11:55:05.000Z,12
2024-02-03T11:56:18.000Z,12
2024-02-03T11:57:30.000Z,11.9
2024-02-03T11:58:42.000Z,11.9
2024-02-03T11:59:54.000Z,11.8
2024-02-03T12:02:18.000Z,11.7
2024-02-03T12:03:07.159Z,11.8
2024-02-03T12:03:30.000Z,11.8
2024-02-03T12:04:42.000Z,11.8
2024-02-03T12:05:54.000Z,11.9
2024-02-03T12:07:06.000Z,11.9
2024-02-03T12:08:18.000Z,12
2024-02-03T12:09:31.000Z,12
2024-02-03T12:10:43.000Z,12.1
2024-02-03T12:11:55.000Z,12.2
2024-02-03T12:13:07.000Z,12.4
2024-02-03T12:14:19.000Z,12.5
2024-02-03T12:15:32.000Z,12.7
2024-02-03T12:16:44.000Z,12.8
2024-02-03T12:17:55.000Z,13
2024-02-03T12:19:07.000Z,13.1
2024-02-03T12:20:19.000Z,13.2
2024-02-03T12:22:44.000Z,13.3
2024-02-03T12:23:32.326Z,13.3
2024-02-03T12:23:56.000Z,13.2
2024-02-03T12:25:08.000Z,13.1
2024-02-03T12:26:20.000Z,13
2024-02-03T12:27:32.000Z,13
2024-02-03T12:28:45.000Z,13
2024-02-03T12:29:57.000Z,13
2024-02-03T12:31:09.000Z,13.1
2024-02-03T12:32:21.000Z,13
2024-02-03T12:33:32.000Z,13
2024-02-03T12:34:45.000Z,13
2024-02-03T12:35:57.000Z,13
2024-02-03T12:37:09.000Z,13
2024-02-03T12:38:21.000Z,13
2024-02-03T12:39:33.000Z,12.9
2024-02-03T12:40:45.000Z,12.8
2024-02-03T12:41:58.000Z,12.8
2024-02-03T12:43:10.000Z,12.8
2024-02-03T12:44:22.000Z,12.7
2024-02-03T12:45:34.000Z,12.6
2024-02-03T12:46:46.000Z,12.6
2024-02-03T12:47:59.000Z,12.5
2024-02-03T12:49:10.000Z,12.5
2024-02-03T12:50:22.000Z,12.5
2024-02-03T12:51:34.000Z,12.4
2024-02-03T12:52:46.000Z,12.3
2024-02-03T12:53:58.000Z,12.3
2024-02-03T12:55:11.000Z,12.4
2024-02-03T12:56:23.000Z,12.4
2024-02-03T12:57:35.000Z,12.4
2024-02-03T12:58:47.000Z,12.4
2024-02-03T13:01:12.000Z,12.3
2024-02-03T13:02:00.259Z,12.4
2024-02-03T13:02:24.000Z,12.3
2024-02-03T13:03:36.000Z,12.4
2024-02-03T13:04:47.000Z,12.4
2024-02-03T13:05:59.000Z,12.4
2024-02-03T13:07:12.000Z,12.4
2024-02-03T13:08:24.000Z,12.4
2024-02-03T13:09:36.000Z,12.5
2024-02-03T13:10:48.000Z,12.5
2024-02-03T13:12:00.000Z,12.5
2024-02-03T13:13:12.000Z,12.5
2024-02-03T13:14:25.000Z,12.5
2024-02-03T13:15:37.000Z,12.5
2024-02-03T13:16:49.000Z,12.5
2024-02-03T13:18:01.000Z,12.5
2024-02-03T13:19:13.000Z,12.5
2024-02-03T13:20:25.000Z,12.5
2024-02-03T13:21:37.000Z,12.5
2024-02-03T13:22:49.000Z,12.4
2024-02-03T13:24:01.000Z,12.4
2024-02-03T13:25:13.000Z,12.4
2024-02-03T13:26:25.000Z,12.4
2024-02-03T13:27:38.000Z,12.3
2024-02-03T13:28:50.000Z,12.3
2024-02-03T13:30:02.000Z,12.2
2024-02-03T13:31:14.000Z,12.2
2024-02-03T13:32:26.000Z,12.1
2024-02-03T13:33:39.000Z,12.1
2024-02-03T13:34:51.000Z,12.1
2024-02-03T13:36:02.000Z,12
2024-02-03T13:37:14.000Z,12
2024-02-03T13:38:26.000Z,12
2024-02-03T13:39:39.000Z,11.9
2024-02-03T13:40:51.000Z,11.9
2024-02-03T13:42:03.000Z,11.8
2024-02-03T13:43:15.000Z,11.7
2024-02-03T13:44:27.000Z,11.7
2024-02-03T13:45:39.000Z,11.7
2024-02-03T13:46:52.000Z,11.7
2024-02-03T13:48:04.000Z,11.6
2024-02-03T13:49:16.000Z,11.6
2024-02-03T13:50:28.000Z,11.7
2024-02-03T13:51:39.000Z,11.7
2024-02-03T13:52:52.000Z,11.6
2024-02-03T13:54:04.000Z,11.6
2024-02-03T13:55:16.000Z,11.5
2024-02-03T13:56:28.000Z,11.5
2024-02-03T13:58:52.000Z,11.5
2024-02-03T13:59:41.183Z,11.5
2024-02-03T14:00:05.000Z,11.5
2024-02-03T14:01:17.000Z,11.5
2024-02-03T14:02:29.000Z,11.4
2024-02-03T14:03:41.000Z,11.4
2024-02-03T14:04:53.000Z,11.4
2024-02-03T14:06:06.000Z,11.4
2024-02-03T14:07:17.000Z,11.4
2024-02-03T14:08:29.000Z,11.4
2024-02-03T14:09:41.000Z,11.3
2024-02-03T14:10:53.000Z,11.3
2024-02-03T14:12:06.000Z,11.2
2024-02-03T14:13:18.000Z,11.2
2024-02-03T14:14:30.000Z,11.2
2024-02-03T14:15:42.000Z,11.2
2024-02-03T14:16:54.000Z,11.2
2024-02-03T14:18:06.000Z,11.1
2024-02-03T14:19:19.000Z,11.1
2024-02-03T14:20:31.000Z,11.1
2024-02-03T14:21:43.000Z,11.1
2024-02-03T14:22:54.000Z,11.1
2024-02-03T14:24:06.000Z,11.1
2024-02-03T14:25:19.000Z,11.1
2024-02-03T14:26:31.000Z,11
2024-02-03T14:27:43.000Z,11
2024-02-03T14:28:55.000Z,11
2024-02-03T14:30:07.000Z,11
2024-02-03T14:31:20.000Z,11
2024-02-03T14:32:32.000Z,11
2024-02-03T14:33:44.000Z,11
2024-02-03T14:34:56.000Z,11
2024-02-03T14:36:08.000Z,11
2024-02-03T14:37:20.000Z,11
2024-02-03T14:38:32.000Z,11
2024-02-03T14:39:44.000Z,11
2024-02-03T14:40:56.000Z,11
2024-02-03T14:42:08.000Z,11
2024-02-03T14:43:20.000Z,10.9
2024-02-03T14:44:33.000Z,10.9
2024-02-03T14:45:45.000Z,10.9
2024-02-03T14:46:57.000Z,11
2024-02-03T14:48:09.000Z,11
2024-02-03T14:49:21.000Z,11
2024-02-03T14:50:33.000Z,11
2024-02-03T14:51:46.000Z,11
2024-02-03T14:52:58.000Z,11
2024-02-03T14:54:09.000Z,11
2024-02-03T14:55:21.000Z,11
2024-02-03T14:56:33.000Z,11
2024-02-03T14:57:46.000Z,11.1
2024-02-03T14:58:58.000Z,11.1
2024-02-03T15:00:10.000Z,11
2024-02-03T15:01:21.000Z,11
2024-02-03T15:02:33.000Z,11
2024-02-03T15:03:46.000Z,11
2024-02-03T15:04:58.000Z,11
2024-02-03T15:06:10.000Z,11
2024-02-03T15:07:22.000Z,11
2024-02-03T15:08:34.000Z,10.9
2024-02-03T15:09:46.000Z,10.9
2024-02-03T15:10:59.000Z,10.9
2024-02-03T15:12:11.000Z,10.9
2024-02-03T15:14:35.000Z,10.8
2024-02-03T15:15:23.965Z,10.8
2024-02-03T15:15:47.000Z,10.8
2024-02-03T15:16:59.000Z,10.8
2024-02-03T15:18:11.000Z,10.8
2024-02-03T15:19:23.000Z,10.8
2024-02-03T15:20:35.000Z,10.7
2024-02-03T15:21:47.000Z,10.7
2024-02-03T15:23:00.000Z,10.7
2024-02-03T15:24:12.000Z,10.7
2024-02-03T15:25:24.000Z,10.7
2024-02-03T15:26:36.000Z,10.7
2024-02-03T15:27:48.000Z,10.7
2024-02-03T15:29:00.000Z,10.7
2024-02-03T15:30:13.000Z,10.7
2024-02-03T15:31:25.000Z,10.7
2024-02-03T15:32:36.000Z,10.7
2024-02-03T15:33:48.000Z,10.6
2024-02-03T15:35:00.000Z,10.6
2024-02-03T15:36:13.000Z,10.6
2024-02-03T15:37:25.000Z,10.6
2024-02-03T15:38:37.000Z,10.5
2024-02-03T15:39:49.000Z,10.5
2024-02-03T15:41:01.000Z,10.5
2024-02-03T15:43:26.000Z,10.5
2024-02-03T15:44:14.464Z,10.5
2024-02-03T15:44:38.000Z,10.4
2024-02-03T15:45:50.000Z,10.4
2024-02-03T15:47:02.000Z,10.4
2024-02-03T15:48:13.000Z,10.4
2024-02-03T15:49:26.000Z,10.4
2024-02-03T15:50:38.000Z,10.4
2024-02-03T15:51:50.000Z,10.4
2024-02-03T15:53:02.000Z,10.4
2024-02-03T15:54:14.000Z,10.3
2024-02-03T15:55:27.000Z,10.3
2024-02-03T15:56:39.000Z,10.3
2024-02-03T15:57:51.000Z,10.3
2024-02-03T15:59:03.000Z,10.3
2024-02-03T16:00:15.000Z,10.3
2024-02-03T16:01:27.000Z,10.3
2024-02-03T16:02:40.000Z,10.3
2024-02-03T16:03:51.000Z,10.3
2024-02-03T16:05:03.000Z,10.3
2024-02-03T16:06:15.000Z,10.3
2024-02-03T16:07:27.000Z,10.3
2024-02-03T16:08:40.000Z,10.3
2024-02-03T16:09:52.000Z,10.3
2024-02-03T16:11:04.000Z,10.3
2024-02-03T16:12:16.000Z,10.3
2024-02-03T16:13:28.000Z,10.3
2024-02-03T16:14:41.000Z,10.3
2024-02-03T16:15:53.000Z,10.3
2024-02-03T16:17:05.000Z,10.3
2024-02-03T16:18:17.000Z,10.3
2024-02-03T16:19:29.000Z,10.3